Time;durP1;ratioP1;P1;durP2;ratioP2;P2;SDS_P1;SDS_P2;PMS_P1;PMS_P2;Temp;Humidity;BMP_temperature;BMP_pressure;BME280_temperature;BME280_humidity;BME280_pressure;Samples;Min_cycle;Max_cycle;Signal;HPM_P1;HPM_P2
2022/06/13 00:02:03;;;;;;;10.15;4.70;;;15.20;99.90;;;;;;5069443;28;20039;-46
2022/06/13 00:04:29;;;;;;;10.95;4.85;;;15.20;99.90;;;;;;5069539;28;20427;-45
2022/06/13 00:06:55;;;;;;;10.77;4.97;;;15.10;99.90;;;;;;5068212;28;20245;-46
2022/06/13 00:09:20;;;;;;;12.45;4.90;;;15.30;99.90;;;;;;5071151;28;20040;-46
2022/06/13 00:11:46;;;;;;;11.73;4.95;;;15.30;99.90;;;;;;5072284;28;20047;-46
2022/06/13 00:14:12;;;;;;;13.13;5.43;;;15.30;99.90;;;;;;5072897;28;20072;-46
2022/06/13 00:16:37;;;;;;;11.50;4.57;;;15.20;99.90;;;;;;5054966;28;20044;-48
2022/06/13 00:19:03;;;;;;;13.90;4.90;;;15.30;99.90;;;;;;5073103;28;20042;-45
2022/06/13 00:21:34;;;;;;;12.40;5.25;;;15.30;99.90;;;;;;5073181;28;20046;-45
2022/06/13 00:24:03;;;;;;;15.43;5.35;;;15.20;99.90;;;;;;5054781;28;20049;-47
2022/06/13 00:26:31;;;;;;;12.55;5.15;;;15.30;99.90;;;;;;5073218;28;20028;-46
2022/06/13 00:28:57;;;;;;;15.77;5.38;;;15.30;99.90;;;;;;5072902;28;20036;-46
2022/06/13 00:31:24;;;;;;;14.98;4.63;;;15.20;99.90;;;;;;5054548;28;20453;-46
2022/06/13 00:33:50;;;;;;;12.98;5.30;;;15.30;99.90;;;;;;5072904;28;20036;-46
2022/06/13 00:36:16;;;;;;;13.07;5.45;;;15.30;99.90;;;;;;5072319;28;20036;-47
2022/06/13 00:38:43;;;;;;;17.98;5.75;;;15.30;99.90;;;;;;5070698;28;20044;-48
2022/06/13 00:41:15;;;;;;;17.30;5.60;;;15.30;99.90;;;;;;5054225;28;20119;-46
2022/06/13 00:43:43;;;;;;;16.98;5.75;;;15.30;99.90;;;;;;5054528;28;20044;-43
2022/06/13 00:46:23;;;;;;;19.42;6.07;;;15.30;99.90;;;;;;5072615;28;20029;-48
2022/06/13 00:49:00;;;;;;;14.45;5.78;;;15.30;99.90;;;;;;5072674;28;20468;-48
2022/06/13 00:51:26;;;;;;;14.43;6.18;;;15.40;99.90;;;;;;5072037;28;20041;-47
2022/06/13 00:53:53;;;;;;;16.13;5.93;;;15.40;99.90;;;;;;5072448;28;20079;-47
2022/06/13 00:56:23;;;;;;;15.32;6.35;;;15.40;99.90;;;;;;5072298;28;20495;-48
2022/06/13 00:58:55;;;;;;;17.92;6.63;;;15.30;99.90;;;;;;5072359;28;20442;-46
2022/06/13 01:01:23;;;;;;;15.77;6.03;;;15.30;99.90;;;;;;5072211;28;20044;-48
2022/06/13 01:03:50;;;;;;;17.45;6.63;;;15.30;99.90;;;;;;5072300;28;20093;-45
2022/06/13 01:06:17;;;;;;;16.88;6.47;;;15.20;99.90;;;;;;5071684;28;20040;-47
2022/06/13 01:08:43;;;;;;;16.70;6.65;;;15.10;99.90;;;;;;5071686;28;20040;-47
2022/06/13 01:11:16;;;;;;;18.00;7.28;;;15.10;99.90;;;;;;5072234;28;20032;-48
2022/06/13 01:14:16;;;;;;;17.23;6.60;;;15.10;99.90;;;;;;5070039;28;20107;-46
2022/06/13 01:16:56;;;;;;;15.88;5.70;;;15.00;99.90;;;;;;5071790;28;20044;-49
2022/06/13 01:19:56;;;;;;;16.17;5.30;;;15.00;99.90;;;;;;5071323;28;20044;-49
2022/06/13 01:22:42;;;;;;;16.67;5.57;;;14.90;99.90;;;;;;5071714;28;20045;-46
2022/06/13 01:25:17;;;;;;;15.25;5.75;;;14.70;99.90;;;;;;5071928;28;20512;-47
2022/06/13 01:27:45;;;;;;;10.38;5.18;;;14.70;99.90;;;;;;5071591;28;20091;-44
2022/06/13 01:30:31;;;;;;;13.85;5.38;;;14.70;99.90;;;;;;5070942;28;20037;-45
2022/06/13 01:33:29;;;;;;;13.00;5.38;;;14.60;99.90;;;;;;5020222;28;20044;-46
2022/06/13 01:36:01;;;;;;;14.93;5.43;;;14.60;99.90;;;;;;5071658;28;20110;-44
2022/06/13 01:38:59;;;;;;;16.35;5.57;;;14.50;99.90;;;;;;5071218;28;20399;-43
2022/06/13 01:41:33;;;;;;;12.48;5.28;;;14.60;99.90;;;;;;5071283;28;20117;-45
2022/06/13 01:44:11;;;;;;;17.50;6.05;;;14.50;99.90;;;;;;5071296;28;20048;-46
2022/06/13 01:47:01;;;;;;;13.82;6.00;;;14.40;99.90;;;;;;5071306;28;20046;-46
2022/06/13 01:49:30;;;;;;;17.83;6.40;;;14.30;99.90;;;;;;5071088;28;20068;-45
2022/06/13 01:52:16;;;;;;;12.05;6.55;;;14.30;99.90;;;;;;5071112;28;20058;-47
2022/06/13 01:54:54;;;;;;;17.27;6.85;;;14.40;99.90;;;;;;5070827;28;20040;-48
2022/06/13 01:57:31;;;;;;;17.08;6.88;;;14.40;99.90;;;;;;5071395;28;20113;-45
2022/06/13 02:00:04;;;;;;;14.52;6.45;;;14.40;99.90;;;;;;5071144;28;20372;-46
2022/06/13 02:02:45;;;;;;;19.40;7.78;;;14.40;99.90;;;;;;5052129;28;20040;-48
2022/06/13 02:05:19;;;;;;;15.60;6.75;;;14.40;99.90;;;;;;5053085;28;20048;-45
2022/06/13 02:07:52;;;;;;;16.55;6.78;;;14.30;99.90;;;;;;5052467;28;20044;-45
2022/06/13 02:10:23;;;;;;;15.27;7.53;;;14.20;99.90;;;;;;5071141;28;20032;-48
2022/06/13 02:12:52;;;;;;;15.80;7.57;;;14.20;99.90;;;;;;5053046;28;20040;-45
2022/06/13 02:15:26;;;;;;;21.30;8.05;;;14.20;99.90;;;;;;5070631;28;20082;-46
2022/06/13 02:18:00;;;;;;;24.38;7.70;;;14.30;99.90;;;;;;5052808;28;20173;-47
2022/06/13 02:20:31;;;;;;;17.85;7.63;;;14.30;99.90;;;;;;5070767;28;20111;-49
2022/06/13 02:23:00;;;;;;;17.80;8.32;;;14.30;99.90;;;;;;5070407;28;20091;-47
2022/06/13 02:25:45;;;;;;;22.58;8.50;;;14.20;99.90;;;;;;5070876;28;20044;-46
2022/06/13 02:28:18;;;;;;;;;;;14.20;99.90;;;;;;5071181;28;20083;-47
2022/06/13 02:30:55;;;;;;;20.73;8.40;;;14.30;99.90;;;;;;5070129;28;20284;-46
2022/06/13 02:33:27;;;;;;;19.10;8.60;;;14.10;99.90;;;;;;5070593;28;20062;-50
2022/06/13 02:36:01;;;;;;;22.00;8.35;;;14.10;99.90;;;;;;5070290;28;20029;-46
2022/06/13 02:38:43;;;;;;;20.23;9.15;;;14.20;99.90;;;;;;5070296;28;20043;-47
2022/06/13 02:41:14;;;;;;;15.88;9.07;;;14.20;99.90;;;;;;5070153;28;20041;-46
2022/06/13 02:43:52;;;;;;;18.95;8.88;;;14.30;99.90;;;;;;5070440;28;20044;-47
2022/06/13 02:46:29;;;;;;;20.40;9.55;;;14.20;99.90;;;;;;5069534;28;20064;-49
2022/06/13 02:49:01;;;;;;;22.10;9.40;;;14.30;99.90;;;;;;5070710;28;20371;-49
2022/06/13 02:52:00;;;;;;;19.88;9.20;;;14.20;99.90;;;;;;5070189;28;20040;-49
2022/06/13 02:54:29;;;;;;;19.02;9.00;;;14.10;99.90;;;;;;5070318;28;20369;-47
2022/06/13 02:57:27;;;;;;;21.67;9.48;;;14.10;99.90;;;;;;5052220;28;20502;-45
2022/06/13 03:00:14;;;;;;;20.38;9.15;;;14.10;99.90;;;;;;5070189;28;20052;-49
2022/06/13 03:02:48;;;;;;;23.45;10.10;;;14.10;99.90;;;;;;5070083;28;20067;-49
2022/06/13 03:05:29;;;;;;;20.73;9.35;;;14.10;99.90;;;;;;5069952;28;20040;-49
2022/06/13 03:08:09;;;;;;;20.33;9.40;;;14.10;99.90;;;;;;5069871;28;20056;-46
2022/06/13 03:11:03;;;;;;;23.38;9.93;;;14.20;99.90;;;;;;5069867;28;20094;-49
2022/06/13 03:13:54;;;;;;;19.20;9.13;;;14.20;99.90;;;;;;5070076;28;20111;-47
2022/06/13 03:16:24;;;;;;;24.27;9.75;;;14.10;99.90;;;;;;5070161;28;20052;-45
2022/06/13 03:18:57;;;;;;;16.85;9.13;;;14.20;99.90;;;;;;5070288;28;20104;-46
2022/06/13 03:21:34;;;;;;;22.58;10.00;;;14.20;99.90;;;;;;5069463;28;20044;-46
2022/06/13 03:24:10;;;;;;;17.83;9.50;;;14.20;99.90;;;;;;5069425;28;20508;-46
2022/06/13 03:26:46;;;;;;;20.33;10.57;;;14.10;99.90;;;;;;5068735;28;20484;-46
2022/06/13 03:29:22;;;;;;;26.55;10.38;;;14.10;99.90;;;;;;5068793;28;20037;-46
2022/06/13 03:31:53;;;;;;;27.00;10.35;;;14.20;99.90;;;;;;5069568;28;20452;-47
2022/06/13 03:34:28;;;;;;;26.00;10.32;;;14.30;99.90;;;;;;5051459;28;20086;-45
2022/06/13 03:37:01;;;;;;;21.25;10.02;;;14.20;99.90;;;;;;5069946;28;20514;-46
2022/06/13 03:39:32;;;;;;;19.55;11.00;;;14.20;99.90;;;;;;5069079;28;20048;-49
2022/06/13 03:42:11;;;;;;;21.55;10.80;;;14.40;99.90;;;;;;5069188;28;20111;-47
2022/06/13 03:44:46;;;;;;;28.25;10.50;;;14.30;99.90;;;;;;5073117;28;20529;-46
2022/06/13 03:47:19;;;;;;;20.40;10.43;;;14.40;99.90;;;;;;5073642;28;20455;-50
2022/06/13 03:49:56;;;;;;;25.13;11.15;;;14.40;99.90;;;;;;5073544;28;20044;-49
2022/06/13 03:52:23;;;;;;;22.30;10.50;;;14.40;99.90;;;;;;5073252;28;20044;-47
2022/06/13 03:54:58;;;;;;;25.73;10.13;;;14.40;99.90;;;;;;5073355;28;20431;-50
2022/06/13 03:57:36;;;;;;;27.17;10.88;;;14.40;99.90;;;;;;5073552;28;20127;-47
2022/06/13 04:00:15;;;;;;;23.63;10.88;;;14.30;99.90;;;;;;5073323;28;20452;-47
2022/06/13 04:02:43;;;;;;;21.00;10.35;;;14.30;99.90;;;;;;5073521;28;20096;-46
2022/06/13 04:05:32;;;;;;;25.17;10.30;;;14.20;99.90;;;;;;5073433;28;21286;-48
2022/06/13 04:08:00;;;;;;;23.33;10.18;;;14.30;99.90;;;;;;5053452;28;20170;-46
2022/06/13 04:10:27;;;;;;;22.35;9.20;;;14.30;99.90;;;;;;5073273;28;20045;-46
2022/06/13 04:13:02;;;;;;;18.48;7.13;;;14.40;99.90;;;;;;5071576;28;20047;-47
2022/06/13 04:15:40;;;;;;;15.95;5.13;;;14.40;99.90;;;;;;5073090;28;20045;-49
2022/06/13 04:18:19;;;;;;;13.10;3.90;;;14.40;99.90;;;;;;5072658;28;20122;-46
2022/06/13 04:21:14;;;;;;;11.18;3.50;;;14.50;99.90;;;;;;5072748;28;20078;-45
2022/06/13 04:23:55;;;;;;;11.77;2.95;;;14.60;99.90;;;;;;5059054;28;20543;-46
2022/06/13 04:26:58;;;;;;;11.48;2.70;;;14.60;99.90;;;;;;5073060;28;20067;-49
2022/06/13 04:29:32;;;;;;;10.30;2.95;;;14.60;99.90;;;;;;5021956;28;20048;-46
2022/06/13 04:32:04;;;;;;;9.25;3.10;;;14.60;99.90;;;;;;5072893;28;20415;-48
2022/06/13 04:34:36;;;;;;;12.18;2.88;;;14.70;99.90;;;;;;5054596;28;20048;-46
2022/06/13 04:37:04;;;;;;;13.20;2.90;;;14.70;99.90;;;;;;5072807;28;20041;-45
2022/06/13 04:39:33;;;;;;;8.20;2.55;;;14.80;99.90;;;;;;5072099;28;20036;-47
2022/06/13 04:42:01;;;;;;;9.15;2.67;;;14.90;99.90;;;;;;5053839;28;20076;-46
2022/06/13 04:44:30;;;;;;;7.18;1.90;;;14.90;99.90;;;;;;5072437;28;20036;-46
2022/06/13 04:46:57;;;;;;;9.40;2.40;;;14.90;99.90;;;;;;5072693;28;20123;-45
2022/06/13 04:49:45;;;;;;;10.50;2.25;;;14.90;99.90;;;;;;5072598;28;20483;-46
2022/06/13 04:52:16;;;;;;;9.48;2.00;;;15.00;99.90;;;;;;5072681;28;20041;-47
2022/06/13 04:54:46;;;;;;;5.93;1.90;;;14.90;99.90;;;;;;5071568;28;20040;-47
2022/06/13 04:57:15;;;;;;;7.88;2.05;;;15.00;99.90;;;;;;5054436;28;20047;-49
2022/06/13 04:59:42;;;;;;;7.90;2.10;;;14.90;99.90;;;;;;5072428;28;20032;-46
2022/06/13 05:02:16;;;;;;;8.57;2.35;;;14.90;99.90;;;;;;5072435;28;20510;-47
2022/06/13 05:04:42;;;;;;;6.60;2.10;;;14.90;99.90;;;;;;5072213;28;20044;-49
2022/06/13 05:07:17;;;;;;;6.63;1.83;;;14.90;99.90;;;;;;5072074;28;20387;-45
2022/06/13 05:09:57;;;;;;;8.40;2.20;;;14.80;99.90;;;;;;5071897;28;20032;-45
2022/06/13 05:12:42;;;;;;;8.35;2.38;;;14.80;99.90;;;;;;5071979;28;20035;-46
2022/06/13 05:15:10;;;;;;;6.80;1.85;;;14.80;99.90;;;;;;5054091;28;20123;-47
2022/06/13 05:18:01;;;;;;;7.20;1.98;;;14.80;99.90;;;;;;5072358;28;20463;-47
2022/06/13 05:20:32;;;;;;;6.28;1.80;;;14.80;99.90;;;;;;5070960;28;20041;-48
2022/06/13 05:23:19;;;;;;;8.82;2.05;;;14.70;99.90;;;;;;5071900;28;20055;-48
2022/06/13 05:25:53;;;;;;;8.10;2.20;;;14.70;99.90;;;;;;5071815;28;20121;-48
2022/06/13 05:28:22;;;;;;;9.05;2.40;;;14.80;99.90;;;;;;5053929;28;20506;-47
2022/06/13 05:30:53;;;;;;;7.40;2.42;;;14.80;99.90;;;;;;5071417;28;20028;-46
2022/06/13 05:33:24;;;;;;;7.30;1.77;;;15.00;99.90;;;;;;5071999;28;20048;-49
2022/06/13 05:35:56;;;;;;;8.23;2.00;;;15.20;99.90;;;;;;5071570;28;20033;-46
2022/06/13 05:38:41;;;;;;;5.10;1.65;;;15.30;99.90;;;;;;5071176;28;20044;-48
2022/06/13 05:41:07;;;;;;;6.22;1.65;;;15.30;99.90;;;;;;5071471;28;20110;-46
2022/06/13 05:43:33;;;;;;;7.43;1.73;;;15.40;99.90;;;;;;5071679;28;20039;-46
2022/06/13 05:45:59;;;;;;;7.63;1.83;;;15.40;99.90;;;;;;5071467;28;20492;-46
2022/06/13 05:48:25;;;;;;;8.77;1.48;;;15.40;99.90;;;;;;5071302;28;20043;-48
2022/06/13 05:50:51;;;;;;;8.07;1.50;;;15.30;99.90;;;;;;5053081;28;20048;-45
2022/06/13 05:53:20;;;;;;;8.93;1.75;;;15.40;99.90;;;;;;5053084;28;20045;-47
2022/06/13 05:55:47;;;;;;;8.60;1.55;;;15.30;99.90;;;;;;5071212;28;20040;-48
2022/06/13 05:58:15;;;;;;;6.40;1.52;;;15.30;99.90;;;;;;5071268;28;20059;-45
2022/06/13 06:00:49;;;;;;;6.88;1.67;;;15.30;99.90;;;;;;5070395;28;20076;-45
2022/06/13 06:03:16;;;;;;;;;;;15.20;99.90;;;;;;5070533;28;20042;-45
2022/06/13 06:05:43;;;;;;;11.25;1.85;;;15.20;99.90;;;;;;5070130;28;19917;-48
2022/06/13 06:08:24;;;;;;;5.85;1.42;;;15.30;99.90;;;;;;5070349;28;20032;-47
2022/06/13 06:10:52;;;;;;;8.13;1.58;;;15.50;99.90;;;;;;5070808;28;20033;-47
2022/06/13 06:13:19;;;;;;;9.95;2.05;;;15.70;99.90;;;;;;5070843;28;20037;-47
2022/06/13 06:15:46;;;;;;;8.73;1.77;;;15.60;99.90;;;;;;5070753;28;20032;-47
2022/06/13 06:18:13;;;;;;;7.25;1.63;;;15.80;99.90;;;;;;5071046;28;20067;-46
2022/06/13 06:20:39;;;;;;;8.05;1.60;;;15.80;99.90;;;;;;5070985;28;20544;-46
2022/06/13 06:23:06;;;;;;;9.90;2.05;;;15.80;99.90;;;;;;5070546;28;20052;-45
2022/06/13 06:25:32;;;;;;;10.88;2.00;;;15.80;99.90;;;;;;5070889;28;20491;-46
2022/06/13 06:27:59;;;;;;;7.45;1.83;;;15.80;99.90;;;;;;5070819;28;20037;-47
2022/06/13 06:30:27;;;;;;;7.70;1.40;;;15.80;99.90;;;;;;5070651;28;20125;-45
2022/06/13 06:32:54;;;;;;;10.05;1.95;;;15.90;99.90;;;;;;5070007;28;20032;-45
2022/06/13 06:35:20;;;;;;;7.25;1.35;;;15.90;99.90;;;;;;5070720;28;20114;-47
2022/06/13 06:37:48;;;;;;;8.40;1.75;;;16.00;99.90;;;;;;5069817;28;20040;-46
2022/06/13 06:40:16;;;;;;;5.80;1.67;;;16.10;99.90;;;;;;5070654;28;20471;-45
2022/06/13 06:42:42;;;;;;;9.38;1.80;;;16.20;99.90;;;;;;5070094;28;20052;-48
2022/06/13 06:45:08;;;;;;;12.75;1.88;;;16.20;99.90;;;;;;5070334;28;20355;-46
2022/06/13 06:47:35;;;;;;;9.15;1.60;;;16.10;99.90;;;;;;5070478;28;20455;-47
2022/06/13 06:50:03;;;;;;;10.70;1.50;;;16.10;99.90;;;;;;5070086;28;20052;-46
2022/06/13 06:52:29;;;;;;;6.93;1.60;;;16.10;99.90;;;;;;5050909;28;20038;-45
2022/06/13 07:00:23;;;;;;;7.35;1.73;;;16.40;99.90;;;;;;5070292;28;20383;-49
2022/06/13 07:02:49;;;;;;;7.90;1.65;;;16.40;99.90;;;;;;5051907;28;20120;-45
2022/06/13 07:05:15;;;;;;;9.05;1.80;;;16.40;99.90;;;;;;5069931;28;20040;-45
2022/06/13 07:07:41;;;;;;;10.50;1.85;;;16.30;99.90;;;;;;5069630;28;20037;-45
2022/06/13 07:10:07;;;;;;;8.75;1.80;;;16.10;99.90;;;;;;5069778;28;20025;-46
2022/06/13 07:12:33;;;;;;;8.05;1.35;;;16.20;99.90;;;;;;5070192;28;20468;-49
2022/06/13 07:14:58;;;;;;;9.57;1.80;;;16.40;99.90;;;;;;5070047;28;20043;-44
2022/06/13 07:17:26;;;;;;;6.40;1.35;;;16.30;99.90;;;;;;5051584;28;20483;-44
2022/06/13 07:19:51;;;;;;;12.15;1.58;;;16.40;99.90;;;;;;5051810;28;20106;-45
2022/06/13 07:22:20;;;;;;;8.88;1.10;;;16.40;99.90;;;;;;5069731;28;20495;-45
2022/06/13 07:24:46;;;;;;;6.15;1.42;;;16.40;99.90;;;;;;5069463;28;20080;-45
2022/06/13 07:27:13;;;;;;;5.88;1.25;;;16.40;99.90;;;;;;5070098;28;20495;-46
2022/06/13 07:29:40;;;;;;;9.30;1.48;;;16.50;99.90;;;;;;5070068;28;20059;-46
2022/06/13 07:32:16;;;;;;;7.72;1.50;;;16.30;99.90;;;;;;5069768;28;20111;-44
2022/06/13 07:34:44;;;;;;;8.20;1.60;;;16.20;99.90;;;;;;5069897;28;20029;-45
2022/06/13 07:37:13;;;;;;;7.60;1.20;;;16.40;99.90;;;;;;5069757;28;20047;-48
2022/06/13 07:39:38;;;;;;;8.00;1.38;;;16.40;99.90;;;;;;5069668;28;20084;-45
2022/06/13 07:42:05;;;;;;;8.43;1.30;;;16.50;99.90;;;;;;5069882;28;20060;-47
2022/06/13 07:44:37;;;;;;;14.30;1.77;;;16.60;99.90;;;;;;5069888;28;20040;-46
2022/06/13 07:47:04;;;;;;;7.15;1.67;;;16.40;99.90;;;;;;5069967;28;20036;-48
2022/06/13 07:49:30;;;;;;;9.10;1.40;;;16.30;99.90;;;;;;5069079;28;20048;-48
2022/06/13 07:51:56;;;;;;;7.88;1.33;;;16.60;99.90;;;;;;5069607;28;20032;-48
2022/06/13 07:54:22;;;;;;;7.35;1.42;;;16.60;99.90;;;;;;5069768;28;20376;-45
2022/06/13 07:56:48;;;;;;;6.85;1.23;;;16.50;99.90;;;;;;5069648;28;20045;-46
2022/06/13 07:59:19;;;;;;;7.32;1.80;;;16.70;99.90;;;;;;5069430;28;20460;-46
2022/06/13 08:01:45;;;;;;;7.03;1.40;;;16.80;99.90;;;;;;5069785;28;20110;-45
2022/06/13 08:04:11;;;;;;;6.28;1.30;;;16.90;99.90;;;;;;5069334;28;20040;-47
2022/06/13 08:06:42;;;;;;;9.68;1.70;;;17.00;99.90;;;;;;5069523;28;20040;-45
2022/06/13 08:09:09;;;;;;;6.43;1.25;;;16.80;99.90;;;;;;5051081;28;20059;-46
2022/06/13 08:11:39;;;;;;;8.65;1.52;;;16.60;99.90;;;;;;5069671;28;20081;-47
2022/06/13 08:14:08;;;;;;;8.00;1.35;;;16.30;99.90;;;;;;5069682;28;20090;-45
2022/06/13 08:16:34;;;;;;;6.70;1.50;;;16.00;99.90;;;;;;5051314;28;20055;-45
2022/06/13 08:19:03;;;;;;;5.80;1.10;;;15.70;99.90;;;;;;5069058;28;20487;-46
2022/06/13 08:21:30;;;;;;;7.40;1.38;;;15.60;99.90;;;;;;5068901;28;20052;-46
2022/06/13 08:23:55;;;;;;;7.95;1.33;;;15.80;99.90;;;;;;5069457;28;20048;-45
2022/06/13 08:26:22;;;;;;;10.45;1.10;;;16.00;99.90;;;;;;5068051;28;20526;-48
2022/06/13 08:28:48;;;;;;;5.72;1.25;;;16.30;99.90;;;;;;5069140;28;20062;-47
2022/06/13 08:31:17;;;;;;;6.55;1.05;;;16.60;99.90;;;;;;5072564;28;20040;-45
2022/06/13 08:33:43;;;;;;;5.47;1.02;;;16.70;99.90;;;;;;5073104;28;20074;-48
2022/06/13 08:36:09;;;;;;;7.57;1.02;;;16.80;99.90;;;;;;5072963;28;20471;-46
2022/06/13 08:38:36;;;;;;;8.07;1.23;;;16.70;99.90;;;;;;5072566;28;20044;-46
2022/06/13 08:41:18;;;;;;;4.38;0.80;;;16.70;99.90;;;;;;5072683;28;20040;-45
2022/06/13 08:44:17;;;;;;;9.35;1.00;;;16.80;99.90;;;;;;5072869;28;20382;-46
2022/06/13 08:46:48;;;;;;;5.85;0.77;;;16.90;99.90;;;;;;5072912;28;20055;-47
2022/06/13 08:49:49;;;;;;;7.40;1.23;;;17.20;99.90;;;;;;5072522;28;20033;-46
2022/06/13 08:52:31;;;;;;;6.85;0.93;;;16.90;99.90;;;;;;5072665;28;20384;-47
2022/06/13 08:55:29;;;;;;;8.93;1.23;;;16.80;99.90;;;;;;5072328;28;20035;-46
2022/06/13 08:58:15;;;;;;;6.13;0.70;;;16.60;99.90;;;;;;5052280;28;20044;-44
2022/06/13 09:00:47;;;;;;;5.95;0.90;;;16.60;99.90;;;;;;5072318;28;20044;-46
2022/06/13 09:03:19;;;;;;;9.18;1.35;;;17.00;99.90;;;;;;5072822;28;20033;-44
2022/06/13 09:05:58;;;;;;;5.75;1.10;;;17.20;99.90;;;;;;5072352;28;20102;-45
2022/06/13 09:09:00;;;;;;;3.72;1.00;;;17.20;99.90;;;;;;5072161;28;20455;-47
2022/06/13 09:11:36;;;;;;;7.55;1.00;;;17.40;99.90;;;;;;5071650;28;20040;-49
2022/06/13 09:14:09;;;;;;;5.45;0.90;;;17.70;99.90;;;;;;5072218;28;20475;-47
2022/06/13 09:16:38;;;;;;;6.28;1.15;;;18.20;99.90;;;;;;5054268;28;20111;-45
2022/06/13 09:19:15;;;;;;;5.25;1.08;;;18.00;99.90;;;;;;5072155;28;20484;-47
2022/06/13 09:22:05;;;;;;;6.80;1.20;;;18.10;99.90;;;;;;5071858;28;20051;-48
2022/06/13 09:24:34;;;;;;;5.10;0.85;;;18.20;99.90;;;;;;5071684;28;20057;-44
2022/06/13 09:27:23;;;;;;;5.05;0.75;;;18.10;99.90;;;;;;5071939;28;20037;-47
2022/06/13 09:30:06;;;;;;;4.75;1.02;;;18.40;99.90;;;;;;5071981;28;20434;-45
2022/06/13 09:32:39;;;;;;;7.05;0.95;;;18.00;99.90;;;;;;5071730;28;20150;-49
2022/06/13 09:35:10;;;;;;;7.25;0.90;;;18.30;99.90;;;;;;5071801;28;20395;-49
2022/06/13 09:37:36;;;;;;;6.10;0.90;;;17.90;99.90;;;;;;5072031;28;20036;-48
2022/06/13 09:40:02;;;;;;;4.93;0.80;;;17.80;99.90;;;;;;5071040;28;20361;-46
2022/06/13 09:42:28;;;;;;;6.13;1.20;;;18.20;99.90;;;;;;5071529;28;20039;-48
2022/06/13 09:45:09;;;;;;;9.75;0.85;;;18.30;99.90;;;;;;5071512;28;20490;-47
2022/06/13 09:47:51;;;;;;;6.03;1.08;;;18.60;99.90;;;;;;5071510;28;20464;-48
2022/06/13 09:50:38;;;;;;;6.28;0.90;;;18.30;99.90;;;;;;5071467;28;20044;-46
2022/06/13 09:53:26;;;;;;;6.53;0.82;;;18.00;99.90;;;;;;5070865;28;20102;-45
2022/06/13 09:56:01;;;;;;;9.77;1.15;;;18.40;99.90;;;;;;5071480;28;20044;-48
2022/06/13 09:58:45;;;;;;;6.05;1.10;;;18.40;99.90;;;;;;5071042;28;20060;-46
2022/06/13 10:01:31;;;;;;;5.25;1.13;;;18.80;99.90;;;;;;5070878;28;20040;-48
2022/06/13 10:04:10;;;;;;;5.70;0.75;;;18.20;99.90;;;;;;5071332;28;20074;-47
2022/06/13 10:07:20;;;;;;;7.35;1.00;;;17.70;99.90;;;;;;5071113;28;20139;-47
2022/06/13 10:10:24;;;;;;;7.88;1.17;;;18.10;99.90;;;;;;5070489;28;20044;-46
2022/06/13 10:13:05;;;;;;;6.95;0.88;;;18.30;99.90;;;;;;5069925;28;20037;-46
2022/06/13 10:15:59;;;;;;;7.30;1.10;;;18.30;99.90;;;;;;5070875;28;20083;-48
2022/06/13 10:18:47;;;;;;;7.10;1.20;;;18.50;99.90;;;;;;5070808;28;20073;-49
2022/06/13 10:21:31;;;;;;;5.75;0.95;;;18.50;99.90;;;;;;5052444;28;20056;-47
2022/06/13 10:24:05;;;;;;;6.80;1.00;;;18.60;99.90;;;;;;5070818;28;20515;-46
2022/06/13 10:26:38;;;;;;;5.05;0.93;;;18.60;99.90;;;;;;5070463;28;20055;-47
2022/06/13 10:29:20;;;;;;;6.67;1.30;;;18.60;99.90;;;;;;5070587;28;20048;-47
2022/06/13 10:31:52;;;;;;;6.13;1.00;;;18.70;99.90;;;;;;5069913;28;20045;-47
2022/06/13 10:34:30;;;;;;;8.75;1.30;;;17.80;99.90;;;;;;5070580;28;20037;-49
2022/06/13 10:37:21;;;;;;;6.25;1.00;;;18.00;99.90;;;;;;5070435;28;20090;-48
2022/06/13 10:39:52;;;;;;;6.18;1.20;;;17.80;99.90;;;;;;5070115;28;20101;-47
2022/06/13 10:42:27;;;;;;;6.85;1.10;;;18.00;99.90;;;;;;5070553;28;20054;-46
2022/06/13 10:44:53;;;;;;;6.28;1.13;;;18.10;99.90;;;;;;5070221;28;20036;-47
2022/06/13 10:47:35;;;;;;;6.93;1.30;;;17.90;99.90;;;;;;5070530;28;20475;-49
2022/06/13 10:50:07;;;;;;;9.48;1.50;;;17.90;99.90;;;;;;5052245;28;20036;-48
2022/06/13 10:52:40;;;;;;;4.97;1.20;;;17.90;99.90;;;;;;5051241;28;20044;-46
2022/06/13 10:55:08;;;;;;;7.93;1.20;;;18.30;99.90;;;;;;5070163;28;20111;-45
2022/06/13 10:57:48;;;;;;;7.85;1.45;;;18.30;99.90;;;;;;5070298;28;20536;-49
2022/06/13 11:00:20;;;;;;;4.90;0.98;;;18.30;99.90;;;;;;5070120;28;20468;-47
2022/06/13 11:02:47;;;;;;;8.35;1.25;;;18.60;99.90;;;;;;5070010;28;20040;-46
2022/06/13 11:05:19;;;;;;;6.63;1.10;;;18.20;99.90;;;;;;5070169;28;20090;-47
2022/06/13 11:07:48;;;;;;;8.05;1.20;;;18.00;99.90;;;;;;5051859;28;20036;-47
2022/06/13 11:10:36;;;;;;;6.57;1.10;;;17.70;99.90;;;;;;5069688;28;20123;-47
2022/06/13 11:13:04;;;;;;;5.63;1.00;;;18.00;99.90;;;;;;5070273;28;20062;-47
2022/06/13 11:24:40;;;;;;;6.80;1.55;;;18.10;99.90;;;;;;5069926;28;20048;-45
2022/06/13 11:30:16;;;;;;;10.20;1.40;;;18.90;99.90;;;;;;5051363;28;20045;-45
2022/06/13 11:33:02;;;;;;;6.28;1.20;;;19.20;99.90;;;;;;5051475;28;20128;-48
2022/06/13 11:36:01;;;;;;;8.23;1.17;;;19.80;99.90;;;;;;5069948;28;20473;-46
2022/06/13 11:38:32;;;;;;;6.85;1.40;;;19.60;99.90;;;;;;5069661;28;20056;-47
2022/06/13 11:41:17;;;;;;;11.48;1.60;;;18.90;99.90;;;;;;5068951;28;20048;-47
2022/06/13 11:43:57;;;;;;;9.23;1.42;;;18.60;99.90;;;;;;5070247;28;20064;-48
2022/06/13 11:46:23;;;;;;;7.97;1.30;;;18.20;99.90;;;;;;5069425;28;20048;-46
2022/06/13 11:48:50;;;;;;;10.68;1.63;;;18.50;99.90;;;;;;5051566;28;20041;-45
2022/06/13 11:51:23;;;;;;;10.10;1.55;;;18.70;99.90;;;;;;5069335;28;20033;-46
2022/06/13 11:53:51;;;;;;;9.55;1.38;;;18.30;99.90;;;;;;5069519;28;20078;-47
2022/06/13 11:56:23;;;;;;;9.07;1.20;;;18.50;99.90;;;;;;5069722;28;20052;-47
2022/06/13 11:58:51;;;;;;;5.97;1.27;;;18.90;99.90;;;;;;5069023;28;20040;-45
2022/06/13 12:01:30;;;;;;;6.50;1.27;;;18.80;99.90;;;;;;5069338;28;20053;-45
2022/06/13 12:04:11;;;;;;;7.35;1.27;;;18.30;99.90;;;;;;5071365;28;20128;-45
2022/06/13 12:06:43;;;;;;;7.28;1.20;;;18.10;99.90;;;;;;5073412;28;20383;-47
2022/06/13 12:09:24;;;;;;;6.13;1.05;;;19.00;99.90;;;;;;5072970;28;20487;-48
2022/06/13 12:11:56;;;;;;;5.93;1.10;;;18.60;99.90;;;;;;5072911;28;20094;-46
2022/06/13 12:14:24;;;;;;;7.47;1.45;;;18.40;99.90;;;;;;5073283;28;20434;-48
2022/06/13 12:17:05;;;;;;;7.30;1.20;;;18.30;99.90;;;;;;5072800;28;20035;-47
2022/06/13 12:19:39;;;;;;;7.47;1.25;;;18.30;99.90;;;;;;5072893;28;20044;-48
2022/06/13 12:22:41;;;;;;;9.23;1.08;;;18.30;99.90;;;;;;5073381;28;20086;-46
2022/06/13 12:25:19;;;;;;;7.53;1.13;;;18.80;99.90;;;;;;5072644;28;20051;-47
2022/06/13 12:28:17;;;;;;;5.53;1.10;;;18.70;99.90;;;;;;5073229;28;20040;-48
2022/06/13 12:31:16;;;;;;;6.38;1.10;;;18.40;99.90;;;;;;5072581;28;20066;-47
2022/06/13 12:33:53;;;;;;;8.48;1.45;;;18.20;99.90;;;;;;5073006;28;20523;-48
2022/06/13 12:36:57;;;;;;;8.07;1.40;;;18.70;99.90;;;;;;5072785;28;20075;-46
2022/06/13 12:39:55;;;;;;;6.72;1.10;;;19.30;99.90;;;;;;4954728;28;20050;-45
2022/06/13 12:42:41;;;;;;;6.32;1.50;;;18.90;99.90;;;;;;5072968;28;20098;-44
2022/06/13 12:45:29;;;;;;;7.40;1.30;;;18.40;99.90;;;;;;5072751;28;20037;-45
2022/06/13 12:48:11;;;;;;;7.45;1.65;;;18.10;99.90;;;;;;5072708;28;20044;-48
2022/06/13 12:51:02;;;;;;;6.75;1.35;;;18.00;99.90;;;;;;5072499;28;20068;-46
2022/06/13 12:53:43;;;;;;;7.55;1.23;;;17.70;99.90;;;;;;5072579;28;20548;-46
2022/06/13 12:56:16;;;;;;;6.63;1.20;;;17.70;99.90;;;;;;5070952;28;20053;-47
2022/06/13 12:58:42;;;;;;;6.55;1.00;;;18.70;99.90;;;;;;5072678;28;20192;-46
2022/06/13 13:01:14;;;;;;;7.30;1.13;;;19.30;99.90;;;;;;5054349;28;20079;-46
2022/06/13 13:03:57;;;;;;;6.43;0.93;;;19.70;99.90;;;;;;5072203;28;20044;-49
2022/06/13 13:06:50;;;;;;;6.75;1.15;;;19.70;99.90;;;;;;5054571;28;20123;-46
2022/06/13 13:09:16;;;;;;;5.60;1.08;;;19.90;99.90;;;;;;5071882;28;20502;-47
2022/06/13 13:12:02;;;;;;;6.57;1.10;;;20.30;99.90;;;;;;5072151;28;20120;-47
2022/06/13 13:14:41;;;;;;;7.55;1.33;;;20.30;99.90;;;;;;5072389;28;20041;-46
2022/06/13 13:17:32;;;;;;;6.50;1.00;;;20.60;99.90;;;;;;5071554;28;20036;-47
2022/06/13 13:20:04;;;;;;;5.75;1.20;;;20.50;99.90;;;;;;5054135;28;20036;-49
2022/06/13 13:23:07;;;;;;;6.47;1.00;;;20.30;99.40;;;;;;5071989;28;20068;-46
2022/06/13 13:25:48;;;;;;;9.45;1.20;;;20.50;99.60;;;;;;4972583;28;20054;-47
2022/06/13 13:28:24;;;;;;;7.75;1.20;;;20.40;99.50;;;;;;5072046;28;20037;-49
2022/06/13 13:30:59;;;;;;;9.98;1.08;;;21.10;99.90;;;;;;5053938;28;20033;-46
2022/06/13 13:34:16;;;;;;;6.05;1.05;;;21.00;99.00;;;;;;5072001;28;20388;-47
2022/06/13 13:37:02;;;;;;;8.20;1.20;;;20.70;99.60;;;;;;4970486;28;20167;-48
2022/06/13 13:39:45;;;;;;;6.93;1.23;;;21.50;99.90;;;;;;5070969;28;20101;-47
2022/06/13 13:42:44;;;;;;;8.68;1.42;;;21.40;98.40;;;;;;5071711;28;20487;-47